sensor_id;sensor_type;location;lat;lon;timestamp;temperature;humidity
7688;DHT22;30781;48.154;11.554;2022-09-09T00:01:00;18.00;90.20
7688;DHT22;30781;48.154;11.554;2022-09-09T00:03:36;18.00;90.40
7688;DHT22;30781;48.154;11.554;2022-09-09T00:06:10;17.90;90.50
7688;DHT22;30781;48.154;11.554;2022-09-09T00:08:52;17.90;90.60
7688;DHT22;30781;48.154;11.554;2022-09-09T00:11:32;17.90;90.70
7688;DHT22;30781;48.154;11.554;2022-09-09T00:14:11;17.80;90.70
7688;DHT22;30781;48.154;11.554;2022-09-09T00:16:43;17.80;90.80
7688;DHT22;30781;48.154;11.554;2022-09-09T00:19:20;17.80;90.90
7688;DHT22;30781;48.154;11.554;2022-09-09T00:21:56;17.80;90.90
7688;DHT22;30781;48.154;11.554;2022-09-09T00:24:28;17.80;90.90
7688;DHT22;30781;48.154;11.554;2022-09-09T00:27:02;17.80;90.90
7688;DHT22;30781;48.154;11.554;2022-09-09T00:29:38;17.80;90.90
7688;DHT22;30781;48.154;11.554;2022-09-09T00:32:12;17.70;91.00
7688;DHT22;30781;48.154;11.554;2022-09-09T00:34:47;17.80;91.30
7688;DHT22;30781;48.154;11.554;2022-09-09T00:37:15;17.80;91.30
7688;DHT22;30781;48.154;11.554;2022-09-09T00:39:45;17.80;91.30
7688;DHT22;30781;48.154;11.554;2022-09-09T00:42:15;17.80;91.30
7688;DHT22;30781;48.154;11.554;2022-09-09T00:44:58;17.80;91.30
7688;DHT22;30781;48.154;11.554;2022-09-09T00:47:40;17.80;91.20
7688;DHT22;30781;48.154;11.554;2022-09-09T00:50:24;17.70;91.20
7688;DHT22;30781;48.154;11.554;2022-09-09T00:53:05;17.70;91.20
7688;DHT22;30781;48.154;11.554;2022-09-09T00:55:41;17.60;91.20
7688;DHT22;30781;48.154;11.554;2022-09-09T00:58:13;17.70;91.40
7688;DHT22;30781;48.154;11.554;2022-09-09T01:00:45;17.60;91.20
7688;DHT22;30781;48.154;11.554;2022-09-09T01:03:21;17.60;91.40
7688;DHT22;30781;48.154;11.554;2022-09-09T01:05:59;17.60;91.40
7688;DHT22;30781;48.154;11.554;2022-09-09T01:08:41;17.60;91.50
7688;DHT22;30781;48.154;11.554;2022-09-09T01:11:15;17.60;91.60
7688;DHT22;30781;48.154;11.554;2022-09-09T01:13:45;17.60;91.70
7688;DHT22;30781;48.154;11.554;2022-09-09T01:16:17;17.50;91.80
7688;DHT22;30781;48.154;11.554;2022-09-09T01:18:48;17.50;91.90
7688;DHT22;30781;48.154;11.554;2022-09-09T01:21:22;17.50;92.00
7688;DHT22;30781;48.154;11.554;2022-09-09T01:24:19;17.60;92.10
7688;DHT22;30781;48.154;11.554;2022-09-09T01:26:51;17.60;92.10
7688;DHT22;30781;48.154;11.554;2022-09-09T01:29:21;17.60;92.10
7688;DHT22;30781;48.154;11.554;2022-09-09T01:31:56;17.60;92.10
7688;DHT22;30781;48.154;11.554;2022-09-09T01:34:25;17.70;92.20
7688;DHT22;30781;48.154;11.554;2022-09-09T01:36:57;17.70;92.20
7688;DHT22;30781;48.154;11.554;2022-09-09T01:39:26;17.70;92.50
7688;DHT22;30781;48.154;11.554;2022-09-09T01:41:55;17.70;92.20
7688;DHT22;30781;48.154;11.554;2022-09-09T01:44:22;17.70;92.20
7688;DHT22;30781;48.154;11.554;2022-09-09T01:46:50;17.70;92.20
7688;DHT22;30781;48.154;11.554;2022-09-09T01:49:17;17.70;92.20
7688;DHT22;30781;48.154;11.554;2022-09-09T01:51:47;17.70;92.20
7688;DHT22;30781;48.154;11.554;2022-09-09T01:54:15;17.60;92.10
7688;DHT22;30781;48.154;11.554;2022-09-09T01:56:50;17.60;92.20
7688;DHT22;30781;48.154;11.554;2022-09-09T01:59:40;17.60;92.40
7688;DHT22;30781;48.154;11.554;2022-09-09T02:02:11;17.60;92.50
7688;DHT22;30781;48.154;11.554;2022-09-09T02:04:41;17.50;92.60
7688;DHT22;30781;48.154;11.554;2022-09-09T02:07:31;17.50;92.70
7688;DHT22;30781;48.154;11.554;2022-09-09T02:10:08;17.40;92.80
7688;DHT22;30781;48.154;11.554;2022-09-09T02:12:36;17.40;92.90
7688;DHT22;30781;48.154;11.554;2022-09-09T02:15:13;17.30;92.90
7688;DHT22;30781;48.154;11.554;2022-09-09T02:17:41;17.30;93.00
7688;DHT22;30781;48.154;11.554;2022-09-09T02:20:12;17.30;93.20
7688;DHT22;30781;48.154;11.554;2022-09-09T02:22:41;17.30;93.30
7688;DHT22;30781;48.154;11.554;2022-09-09T02:25:13;17.30;93.30
7688;DHT22;30781;48.154;11.554;2022-09-09T02:27:43;17.30;93.30
7688;DHT22;30781;48.154;11.554;2022-09-09T02:30:13;17.30;93.40
7688;DHT22;30781;48.154;11.554;2022-09-09T02:32:42;17.20;93.50
7688;DHT22;30781;48.154;11.554;2022-09-09T02:35:13;17.30;93.60
7688;DHT22;30781;48.154;11.554;2022-09-09T02:37:42;17.20;93.70
7688;DHT22;30781;48.154;11.554;2022-09-09T02:40:11;17.20;94.10
7688;DHT22;30781;48.154;11.554;2022-09-09T02:42:39;17.20;93.80
7688;DHT22;30781;48.154;11.554;2022-09-09T02:45:08;17.20;94.00
7688;DHT22;30781;48.154;11.554;2022-09-09T02:47:40;17.30;94.00
7688;DHT22;30781;48.154;11.554;2022-09-09T02:50:13;17.30;94.00
7688;DHT22;30781;48.154;11.554;2022-09-09T02:52:58;17.30;93.90
7688;DHT22;30781;48.154;11.554;2022-09-09T02:55:38;17.30;93.90
7688;DHT22;30781;48.154;11.554;2022-09-09T02:58:08;17.30;94.00
7688;DHT22;30781;48.154;11.554;2022-09-09T03:00:36;17.20;94.00
7688;DHT22;30781;48.154;11.554;2022-09-09T03:03:05;17.20;94.00
7688;DHT22;30781;48.154;11.554;2022-09-09T03:05:32;17.20;94.10
7688;DHT22;30781;48.154;11.554;2022-09-09T03:07:59;17.20;94.10
7688;DHT22;30781;48.154;11.554;2022-09-09T03:10:26;17.10;94.10
7688;DHT22;30781;48.154;11.554;2022-09-09T03:12:53;17.10;94.20
7688;DHT22;30781;48.154;11.554;2022-09-09T03:15:21;17.10;94.30
7688;DHT22;30781;48.154;11.554;2022-09-09T03:17:48;17.10;94.50
7688;DHT22;30781;48.154;11.554;2022-09-09T03:20:16;17.00;94.50
7688;DHT22;30781;48.154;11.554;2022-09-09T03:22:44;17.10;94.60
7688;DHT22;30781;48.154;11.554;2022-09-09T03:25:11;17.00;94.50
7688;DHT22;30781;48.154;11.554;2022-09-09T03:27:38;17.00;94.60
7688;DHT22;30781;48.154;11.554;2022-09-09T03:30:06;17.00;94.70
7688;DHT22;30781;48.154;11.554;2022-09-09T03:32:33;17.00;94.70
7688;DHT22;30781;48.154;11.554;2022-09-09T03:35:00;16.90;94.70
7688;DHT22;30781;48.154;11.554;2022-09-09T03:37:28;16.90;94.70
7688;DHT22;30781;48.154;11.554;2022-09-09T03:39:57;16.90;94.90
7688;DHT22;30781;48.154;11.554;2022-09-09T03:42:25;16.90;95.00
7688;DHT22;30781;48.154;11.554;2022-09-09T03:44:53;16.80;95.10
7688;DHT22;30781;48.154;11.554;2022-09-09T03:47:21;16.90;95.20
7688;DHT22;30781;48.154;11.554;2022-09-09T03:49:48;16.90;95.30
7688;DHT22;30781;48.154;11.554;2022-09-09T03:52:15;16.90;95.30
7688;DHT22;30781;48.154;11.554;2022-09-09T03:54:45;16.90;95.40
7688;DHT22;30781;48.154;11.554;2022-09-09T03:57:12;16.90;95.40
7688;DHT22;30781;48.154;11.554;2022-09-09T03:59:42;17.00;95.40
7688;DHT22;30781;48.154;11.554;2022-09-09T04:02:09;17.00;95.40
7688;DHT22;30781;48.154;11.554;2022-09-09T04:04:36;17.10;95.40
7688;DHT22;30781;48.154;11.554;2022-09-09T04:07:04;17.00;95.40
7688;DHT22;30781;48.154;11.554;2022-09-09T04:09:32;17.10;95.40
7688;DHT22;30781;48.154;11.554;2022-09-09T04:12:02;17.10;95.40
7688;DHT22;30781;48.154;11.554;2022-09-09T04:14:29;17.10;95.40
7688;DHT22;30781;48.154;11.554;2022-09-09T04:16:57;17.20;95.40
7688;DHT22;30781;48.154;11.554;2022-09-09T04:19:25;17.20;95.40
7688;DHT22;30781;48.154;11.554;2022-09-09T04:21:52;17.20;95.30
7688;DHT22;30781;48.154;11.554;2022-09-09T04:24:19;17.30;95.30
7688;DHT22;30781;48.154;11.554;2022-09-09T04:26:47;17.30;95.30
7688;DHT22;30781;48.154;11.554;2022-09-09T04:29:16;17.30;95.20
7688;DHT22;30781;48.154;11.554;2022-09-09T04:31:43;17.30;95.20
7688;DHT22;30781;48.154;11.554;2022-09-09T04:34:10;17.20;95.10
7688;DHT22;30781;48.154;11.554;2022-09-09T04:36:37;17.30;95.10
7688;DHT22;30781;48.154;11.554;2022-09-09T04:39:04;17.20;95.10
7688;DHT22;30781;48.154;11.554;2022-09-09T04:41:31;17.20;95.20
7688;DHT22;30781;48.154;11.554;2022-09-09T04:43:59;17.10;95.10
7688;DHT22;30781;48.154;11.554;2022-09-09T04:46:27;17.10;95.20
7688;DHT22;30781;48.154;11.554;2022-09-09T04:48:54;17.00;95.40
7688;DHT22;30781;48.154;11.554;2022-09-09T04:51:21;17.00;95.40
7688;DHT22;30781;48.154;11.554;2022-09-09T04:53:48;16.90;95.50
7688;DHT22;30781;48.154;11.554;2022-09-09T04:56:17;16.90;95.60
7688;DHT22;30781;48.154;11.554;2022-09-09T04:58:44;16.90;95.80
7688;DHT22;30781;48.154;11.554;2022-09-09T05:01:13;16.90;95.80
7688;DHT22;30781;48.154;11.554;2022-09-09T05:03:42;16.80;95.80
7688;DHT22;30781;48.154;11.554;2022-09-09T05:06:12;16.80;95.90
7688;DHT22;30781;48.154;11.554;2022-09-09T05:08:41;16.70;96.00
7688;DHT22;30781;48.154;11.554;2022-09-09T05:11:14;16.80;96.20
7688;DHT22;30781;48.154;11.554;2022-09-09T05:13:42;16.80;96.20
7688;DHT22;30781;48.154;11.554;2022-09-09T05:16:10;16.80;96.20
7688;DHT22;30781;48.154;11.554;2022-09-09T05:18:37;16.70;96.20
7688;DHT22;30781;48.154;11.554;2022-09-09T05:21:11;16.80;96.20
7688;DHT22;30781;48.154;11.554;2022-09-09T05:23:38;16.80;96.20
7688;DHT22;30781;48.154;11.554;2022-09-09T05:26:06;16.80;96.20
7688;DHT22;30781;48.154;11.554;2022-09-09T05:28:34;16.80;96.30
7688;DHT22;30781;48.154;11.554;2022-09-09T05:31:04;16.70;96.30
7688;DHT22;30781;48.154;11.554;2022-09-09T05:33:34;16.80;96.20
7688;DHT22;30781;48.154;11.554;2022-09-09T05:36:03;16.80;96.30
7688;DHT22;30781;48.154;11.554;2022-09-09T05:38:32;16.80;96.30
7688;DHT22;30781;48.154;11.554;2022-09-09T05:40:59;16.80;96.30
7688;DHT22;30781;48.154;11.554;2022-09-09T05:43:27;16.90;96.30
7688;DHT22;30781;48.154;11.554;2022-09-09T05:46:02;16.90;96.30
7688;DHT22;30781;48.154;11.554;2022-09-09T05:48:30;16.90;96.20
7688;DHT22;30781;48.154;11.554;2022-09-09T05:50:58;17.00;96.10
7688;DHT22;30781;48.154;11.554;2022-09-09T05:53:25;17.00;96.00
7688;DHT22;30781;48.154;11.554;2022-09-09T05:56:03;17.10;95.90
7688;DHT22;30781;48.154;11.554;2022-09-09T05:58:30;17.10;95.80
7688;DHT22;30781;48.154;11.554;2022-09-09T06:01:03;17.30;95.70
7688;DHT22;30781;48.154;11.554;2022-09-09T06:03:30;17.20;95.60
7688;DHT22;30781;48.154;11.554;2022-09-09T06:05:58;17.30;95.60
7688;DHT22;30781;48.154;11.554;2022-09-09T06:08:25;17.40;95.60
7688;DHT22;30781;48.154;11.554;2022-09-09T06:10:53;17.40;95.60
7688;DHT22;30781;48.154;11.554;2022-09-09T06:13:24;17.50;95.40
7688;DHT22;30781;48.154;11.554;2022-09-09T06:15:51;17.60;95.30
7688;DHT22;30781;48.154;11.554;2022-09-09T06:18:19;17.60;95.20
7688;DHT22;30781;48.154;11.554;2022-09-09T06:20:54;17.70;95.30
7688;DHT22;30781;48.154;11.554;2022-09-09T06:23:21;17.80;95.10
7688;DHT22;30781;48.154;11.554;2022-09-09T06:25:48;17.90;94.90
7688;DHT22;30781;48.154;11.554;2022-09-09T06:28:16;17.90;94.80
7688;DHT22;30781;48.154;11.554;2022-09-09T06:30:45;17.90;94.70
7688;DHT22;30781;48.154;11.554;2022-09-09T06:33:12;17.90;94.60
7688;DHT22;30781;48.154;11.554;2022-09-09T06:35:40;18.00;94.60
7688;DHT22;30781;48.154;11.554;2022-09-09T06:38:07;18.00;94.50
7688;DHT22;30781;48.154;11.554;2022-09-09T06:40:34;18.00;94.40
7688;DHT22;30781;48.154;11.554;2022-09-09T06:43:02;18.10;94.30
7688;DHT22;30781;48.154;11.554;2022-09-09T06:45:29;18.10;94.20
7688;DHT22;30781;48.154;11.554;2022-09-09T06:47:58;18.10;94.60
7688;DHT22;30781;48.154;11.554;2022-09-09T06:50:25;18.10;94.20
7688;DHT22;30781;48.154;11.554;2022-09-09T06:52:52;18.20;94.20
7688;DHT22;30781;48.154;11.554;2022-09-09T06:55:19;18.20;94.00
7688;DHT22;30781;48.154;11.554;2022-09-09T06:57:46;18.30;94.00
7688;DHT22;30781;48.154;11.554;2022-09-09T07:00:14;18.30;94.00
7688;DHT22;30781;48.154;11.554;2022-09-09T07:02:41;18.40;94.00
7688;DHT22;30781;48.154;11.554;2022-09-09T07:05:09;18.60;93.90
7688;DHT22;30781;48.154;11.554;2022-09-09T07:07:36;18.70;93.70
7688;DHT22;30781;48.154;11.554;2022-09-09T07:10:04;18.80;93.60
7688;DHT22;30781;48.154;11.554;2022-09-09T07:12:31;18.90;93.40
7688;DHT22;30781;48.154;11.554;2022-09-09T07:14:58;18.90;93.10
7688;DHT22;30781;48.154;11.554;2022-09-09T07:17:26;18.90;93.00
7688;DHT22;30781;48.154;11.554;2022-09-09T07:19:53;19.00;93.10
7688;DHT22;30781;48.154;11.554;2022-09-09T07:22:22;18.90;93.00
7688;DHT22;30781;48.154;11.554;2022-09-09T07:24:50;18.90;93.20
7688;DHT22;30781;48.154;11.554;2022-09-09T07:27:17;18.90;93.30
7688;DHT22;30781;48.154;11.554;2022-09-09T07:29:44;18.80;93.40
7688;DHT22;30781;48.154;11.554;2022-09-09T07:32:12;18.80;93.70
7688;DHT22;30781;48.154;11.554;2022-09-09T07:34:38;18.70;93.80
7688;DHT22;30781;48.154;11.554;2022-09-09T07:37:05;18.80;93.90
7688;DHT22;30781;48.154;11.554;2022-09-09T07:39:34;18.80;94.00
7688;DHT22;30781;48.154;11.554;2022-09-09T07:42:01;18.90;94.10
7688;DHT22;30781;48.154;11.554;2022-09-09T07:44:30;19.00;94.20
7688;DHT22;30781;48.154;11.554;2022-09-09T07:47:00;19.10;94.20
7688;DHT22;30781;48.154;11.554;2022-09-09T07:49:27;19.30;94.00
7688;DHT22;30781;48.154;11.554;2022-09-09T07:51:54;19.40;93.80
7688;DHT22;30781;48.154;11.554;2022-09-09T07:54:21;19.60;93.50
7688;DHT22;30781;48.154;11.554;2022-09-09T07:56:51;19.70;93.10
7688;DHT22;30781;48.154;11.554;2022-09-09T07:59:18;19.80;92.80
7688;DHT22;30781;48.154;11.554;2022-09-09T08:01:47;19.80;92.60
7688;DHT22;30781;48.154;11.554;2022-09-09T08:04:17;19.90;92.40
7688;DHT22;30781;48.154;11.554;2022-09-09T08:06:47;20.00;92.30
7688;DHT22;30781;48.154;11.554;2022-09-09T08:09:15;20.10;92.10
7688;DHT22;30781;48.154;11.554;2022-09-09T08:11:42;20.20;92.00
7688;DHT22;30781;48.154;11.554;2022-09-09T08:14:11;20.30;91.80
7688;DHT22;30781;48.154;11.554;2022-09-09T08:16:41;20.40;92.10
7688;DHT22;30781;48.154;11.554;2022-09-09T08:19:08;20.40;91.60
7688;DHT22;30781;48.154;11.554;2022-09-09T08:21:37;20.50;91.50
7688;DHT22;30781;48.154;11.554;2022-09-09T08:24:06;20.60;91.20
7688;DHT22;30781;48.154;11.554;2022-09-09T08:26:35;20.60;91.20
7688;DHT22;30781;48.154;11.554;2022-09-09T08:29:04;20.60;91.10
7688;DHT22;30781;48.154;11.554;2022-09-09T08:31:35;20.60;90.90
7688;DHT22;30781;48.154;11.554;2022-09-09T08:34:03;20.70;91.10
7688;DHT22;30781;48.154;11.554;2022-09-09T08:36:33;20.70;91.30
7688;DHT22;30781;48.154;11.554;2022-09-09T08:39:02;20.80;91.20
7688;DHT22;30781;48.154;11.554;2022-09-09T08:41:56;20.90;90.90
7688;DHT22;30781;48.154;11.554;2022-09-09T08:44:36;21.10;91.10
7688;DHT22;30781;48.154;11.554;2022-09-09T08:47:14;21.20;90.70
7688;DHT22;30781;48.154;11.554;2022-09-09T08:49:58;21.20;90.90
7688;DHT22;30781;48.154;11.554;2022-09-09T08:52:37;21.10;91.20
7688;DHT22;30781;48.154;11.554;2022-09-09T08:55:15;21.00;91.70
7688;DHT22;30781;48.154;11.554;2022-09-09T08:57:47;21.00;92.10
7688;DHT22;30781;48.154;11.554;2022-09-09T09:00:15;20.80;92.10
7688;DHT22;30781;48.154;11.554;2022-09-09T09:02:48;20.70;92.50
7688;DHT22;30781;48.154;11.554;2022-09-09T09:05:22;20.60;93.10
7688;DHT22;30781;48.154;11.554;2022-09-09T09:07:59;20.60;93.00
7688;DHT22;30781;48.154;11.554;2022-09-09T09:10:37;20.50;93.20
7688;DHT22;30781;48.154;11.554;2022-09-09T09:13:11;20.60;93.80
7688;DHT22;30781;48.154;11.554;2022-09-09T09:15:41;20.60;93.70
7688;DHT22;30781;48.154;11.554;2022-09-09T09:18:12;20.70;93.30
7688;DHT22;30781;48.154;11.554;2022-09-09T09:20:50;20.80;93.40
7688;DHT22;30781;48.154;11.554;2022-09-09T09:23:22;21.00;93.10
7688;DHT22;30781;48.154;11.554;2022-09-09T09:25:51;21.10;92.90
7688;DHT22;30781;48.154;11.554;2022-09-09T09:28:22;21.20;92.50
7688;DHT22;30781;48.154;11.554;2022-09-09T09:30:54;21.30;92.20
7688;DHT22;30781;48.154;11.554;2022-09-09T09:33:29;21.40;91.90
7688;DHT22;30781;48.154;11.554;2022-09-09T09:35:58;21.60;91.70
7688;DHT22;30781;48.154;11.554;2022-09-09T09:38:26;21.80;91.00
7688;DHT22;30781;48.154;11.554;2022-09-09T09:40:55;22.00;90.10
7688;DHT22;30781;48.154;11.554;2022-09-09T09:43:26;22.10;88.70
7688;DHT22;30781;48.154;11.554;2022-09-09T09:45:54;22.20;87.40
7688;DHT22;30781;48.154;11.554;2022-09-09T09:48:25;22.30;87.20
7688;DHT22;30781;48.154;11.554;2022-09-09T09:50:55;22.40;86.50
7688;DHT22;30781;48.154;11.554;2022-09-09T09:53:25;22.30;85.50
7688;DHT22;30781;48.154;11.554;2022-09-09T09:55:55;22.30;85.70
7688;DHT22;30781;48.154;11.554;2022-09-09T09:58:24;22.30;85.00
7688;DHT22;30781;48.154;11.554;2022-09-09T10:00:52;22.30;85.10
7688;DHT22;30781;48.154;11.554;2022-09-09T10:03:27;22.20;85.60
7688;DHT22;30781;48.154;11.554;2022-09-09T10:05:54;22.20;85.60
7688;DHT22;30781;48.154;11.554;2022-09-09T10:08:22;22.10;85.80
7688;DHT22;30781;48.154;11.554;2022-09-09T10:11:26;22.00;86.00
7688;DHT22;30781;48.154;11.554;2022-09-09T10:14:02;21.90;86.50
7688;DHT22;30781;48.154;11.554;2022-09-09T10:16:44;21.80;87.40
7688;DHT22;30781;48.154;11.554;2022-09-09T10:19:16;21.70;88.00
7688;DHT22;30781;48.154;11.554;2022-09-09T10:21:59;21.60;88.70
7688;DHT22;30781;48.154;11.554;2022-09-09T10:24:42;21.50;88.40
7688;DHT22;30781;48.154;11.554;2022-09-09T10:27:18;21.50;88.90
7688;DHT22;30781;48.154;11.554;2022-09-09T10:30:04;21.50;88.20
7688;DHT22;30781;48.154;11.554;2022-09-09T10:32:39;21.50;87.80
7688;DHT22;30781;48.154;11.554;2022-09-09T10:35:17;21.50;87.80
7688;DHT22;30781;48.154;11.554;2022-09-09T10:40:46;21.50;88.60
7688;DHT22;30781;48.154;11.554;2022-09-09T10:43:30;21.60;88.60
7688;DHT22;30781;48.154;11.554;2022-09-09T10:46:05;21.70;88.30
7688;DHT22;30781;48.154;11.554;2022-09-09T10:48:44;21.90;87.90
7688;DHT22;30781;48.154;11.554;2022-09-09T10:51:22;22.10;86.90
7688;DHT22;30781;48.154;11.554;2022-09-09T10:54:00;22.30;85.80
7688;DHT22;30781;48.154;11.554;2022-09-09T10:56:30;22.40;84.80
7688;DHT22;30781;48.154;11.554;2022-09-09T10:59:02;22.50;85.00
7688;DHT22;30781;48.154;11.554;2022-09-09T11:01:36;22.50;84.10
7688;DHT22;30781;48.154;11.554;2022-09-09T11:04:10;22.70;84.20
7688;DHT22;30781;48.154;11.554;2022-09-09T11:06:41;22.80;83.80
7688;DHT22;30781;48.154;11.554;2022-09-09T11:09:15;23.00;82.80
7688;DHT22;30781;48.154;11.554;2022-09-09T11:11:49;23.20;82.20
7688;DHT22;30781;48.154;11.554;2022-09-09T11:14:23;23.40;81.70
7688;DHT22;30781;48.154;11.554;2022-09-09T11:16:57;23.60;81.10
7688;DHT22;30781;48.154;11.554;2022-09-09T11:19:30;23.90;80.80
7688;DHT22;30781;48.154;11.554;2022-09-09T11:22:06;24.10;80.00
7688;DHT22;30781;48.154;11.554;2022-09-09T11:24:37;24.30;79.10
7688;DHT22;30781;48.154;11.554;2022-09-09T11:27:09;24.50;77.50
7688;DHT22;30781;48.154;11.554;2022-09-09T11:30:02;24.60;76.40
7688;DHT22;30781;48.154;11.554;2022-09-09T11:33:24;24.60;76.40
7688;DHT22;30781;48.154;11.554;2022-09-09T11:36:09;24.70;76.80
7688;DHT22;30781;48.154;11.554;2022-09-09T11:38:45;24.80;75.80
7688;DHT22;30781;48.154;11.554;2022-09-09T11:41:13;25.00;74.70
7688;DHT22;30781;48.154;11.554;2022-09-09T11:43:43;25.10;73.40
7688;DHT22;30781;48.154;11.554;2022-09-09T11:46:11;25.10;74.00
7688;DHT22;30781;48.154;11.554;2022-09-09T11:48:41;25.20;72.90
7688;DHT22;30781;48.154;11.554;2022-09-09T11:51:12;25.10;72.30
7688;DHT22;30781;48.154;11.554;2022-09-09T11:53:52;25.10;72.20
7688;DHT22;30781;48.154;11.554;2022-09-09T11:56:27;25.00;72.30
7688;DHT22;30781;48.154;11.554;2022-09-09T11:59:04;24.80;71.90
7688;DHT22;30781;48.154;11.554;2022-09-09T12:01:37;24.70;71.40
7688;DHT22;30781;48.154;11.554;2022-09-09T12:04:33;24.50;71.60
7688;DHT22;30781;48.154;11.554;2022-09-09T12:07:04;24.30;72.10
7688;DHT22;30781;48.154;11.554;2022-09-09T12:09:54;24.20;72.20
7688;DHT22;30781;48.154;11.554;2022-09-09T12:12:33;24.00;71.50
7688;DHT22;30781;48.154;11.554;2022-09-09T12:15:18;23.90;72.00
7688;DHT22;30781;48.154;11.554;2022-09-09T12:17:47;23.80;72.30
7688;DHT22;30781;48.154;11.554;2022-09-09T12:20:18;23.70;72.50
7688;DHT22;30781;48.154;11.554;2022-09-09T12:23:18;23.70;73.20
7688;DHT22;30781;48.154;11.554;2022-09-09T12:25:59;23.80;73.20
7688;DHT22;30781;48.154;11.554;2022-09-09T12:28:42;23.90;72.90
7688;DHT22;30781;48.154;11.554;2022-09-09T12:31:15;24.00;72.40
7688;DHT22;30781;48.154;11.554;2022-09-09T12:33:45;24.10;72.40
7688;DHT22;30781;48.154;11.554;2022-09-09T12:36:15;24.20;72.30
7688;DHT22;30781;48.154;11.554;2022-09-09T12:38:43;24.30;71.80
7688;DHT22;30781;48.154;11.554;2022-09-09T12:41:20;24.50;72.10
7688;DHT22;30781;48.154;11.554;2022-09-09T12:43:47;24.60;71.20
7688;DHT22;30781;48.154;11.554;2022-09-09T12:46:23;24.60;70.50
7688;DHT22;30781;48.154;11.554;2022-09-09T12:48:52;24.70;70.60
7688;DHT22;30781;48.154;11.554;2022-09-09T12:51:26;24.80;70.80
7688;DHT22;30781;48.154;11.554;2022-09-09T12:53:54;24.90;70.70
7688;DHT22;30781;48.154;11.554;2022-09-09T12:56:25;25.00;70.50
7688;DHT22;30781;48.154;11.554;2022-09-09T12:58:54;25.10;70.10
7688;DHT22;30781;48.154;11.554;2022-09-09T13:01:24;25.10;69.80
7688;DHT22;30781;48.154;11.554;2022-09-09T13:03:52;25.20;70.10
7688;DHT22;30781;48.154;11.554;2022-09-09T13:06:21;25.20;70.00
7688;DHT22;30781;48.154;11.554;2022-09-09T13:08:50;25.20;69.60
7688;DHT22;30781;48.154;11.554;2022-09-09T13:11:21;25.30;70.10
7688;DHT22;30781;48.154;11.554;2022-09-09T13:13:54;25.20;69.50
7688;DHT22;30781;48.154;11.554;2022-09-09T13:16:25;25.20;69.80
7688;DHT22;30781;48.154;11.554;2022-09-09T13:19:01;25.10;69.70
7688;DHT22;30781;48.154;11.554;2022-09-09T13:21:33;25.00;69.40
7688;DHT22;30781;48.154;11.554;2022-09-09T13:24:01;24.90;69.90
7688;DHT22;30781;48.154;11.554;2022-09-09T13:26:30;24.80;70.00
7688;DHT22;30781;48.154;11.554;2022-09-09T13:29:15;24.80;70.30
7688;DHT22;30781;48.154;11.554;2022-09-09T13:31:44;24.80;70.80
7688;DHT22;30781;48.154;11.554;2022-09-09T13:34:12;24.80;70.70
7688;DHT22;30781;48.154;11.554;2022-09-09T13:36:40;24.90;70.60
7688;DHT22;30781;48.154;11.554;2022-09-09T13:39:15;25.00;70.00
7688;DHT22;30781;48.154;11.554;2022-09-09T13:41:45;25.10;69.70
7688;DHT22;30781;48.154;11.554;2022-09-09T13:44:23;25.10;69.20
7688;DHT22;30781;48.154;11.554;2022-09-09T13:47:00;25.10;69.20
7688;DHT22;30781;48.154;11.554;2022-09-09T13:49:30;25.10;68.50
7688;DHT22;30781;48.154;11.554;2022-09-09T13:52:09;25.00;68.20
7688;DHT22;30781;48.154;11.554;2022-09-09T13:54:36;24.90;67.60
7688;DHT22;30781;48.154;11.554;2022-09-09T13:57:04;24.80;67.80
7688;DHT22;30781;48.154;11.554;2022-09-09T13:59:33;24.70;67.70
7688;DHT22;30781;48.154;11.554;2022-09-09T14:02:00;24.70;67.70
7688;DHT22;30781;48.154;11.554;2022-09-09T14:04:27;24.60;68.00
7688;DHT22;30781;48.154;11.554;2022-09-09T14:06:55;24.50;68.60
7688;DHT22;30781;48.154;11.554;2022-09-09T14:09:22;24.40;69.10
7688;DHT22;30781;48.154;11.554;2022-09-09T14:11:49;24.30;69.60
7688;DHT22;30781;48.154;11.554;2022-09-09T14:14:16;24.20;70.20
7688;DHT22;30781;48.154;11.554;2022-09-09T14:16:45;24.10;69.70
7688;DHT22;30781;48.154;11.554;2022-09-09T14:19:12;24.00;70.00
7688;DHT22;30781;48.154;11.554;2022-09-09T14:21:39;24.00;70.20
7688;DHT22;30781;48.154;11.554;2022-09-09T14:24:06;23.90;70.30
7688;DHT22;30781;48.154;11.554;2022-09-09T14:26:33;23.90;70.60
7688;DHT22;30781;48.154;11.554;2022-09-09T14:29:00;23.80;71.20
7688;DHT22;30781;48.154;11.554;2022-09-09T14:31:27;23.70;71.10
7688;DHT22;30781;48.154;11.554;2022-09-09T14:33:56;23.70;70.80
7688;DHT22;30781;48.154;11.554;2022-09-09T14:36:24;23.70;71.20
7688;DHT22;30781;48.154;11.554;2022-09-09T14:38:51;23.70;71.50
7688;DHT22;30781;48.154;11.554;2022-09-09T14:41:20;23.70;71.40
7688;DHT22;30781;48.154;11.554;2022-09-09T14:43:48;23.70;72.00
7688;DHT22;30781;48.154;11.554;2022-09-09T14:46:16;23.70;71.30
7688;DHT22;30781;48.154;11.554;2022-09-09T14:48:43;23.60;71.30
7688;DHT22;30781;48.154;11.554;2022-09-09T14:51:14;23.50;70.80
7688;DHT22;30781;48.154;11.554;2022-09-09T14:53:42;23.40;70.90
7688;DHT22;30781;48.154;11.554;2022-09-09T14:56:12;23.20;70.70
7688;DHT22;30781;48.154;11.554;2022-09-09T14:58:39;23.10;71.10
7688;DHT22;30781;48.154;11.554;2022-09-09T15:01:08;23.00;71.70
7688;DHT22;30781;48.154;11.554;2022-09-09T15:03:37;22.90;71.60
7688;DHT22;30781;48.154;11.554;2022-09-09T15:06:08;22.80;71.50
7688;DHT22;30781;48.154;11.554;2022-09-09T15:08:41;22.80;71.30
7688;DHT22;30781;48.154;11.554;2022-09-09T15:11:09;22.70;70.90
7688;DHT22;30781;48.154;11.554;2022-09-09T15:13:38;22.60;71.60
7688;DHT22;30781;48.154;11.554;2022-09-09T15:16:06;22.40;72.10
7688;DHT22;30781;48.154;11.554;2022-09-09T15:18:34;22.30;72.20
7688;DHT22;30781;48.154;11.554;2022-09-09T15:21:02;22.30;72.50
7688;DHT22;30781;48.154;11.554;2022-09-09T15:23:31;22.20;73.00
7688;DHT22;30781;48.154;11.554;2022-09-09T15:26:00;22.20;73.00
7688;DHT22;30781;48.154;11.554;2022-09-09T15:28:27;22.20;72.60
7688;DHT22;30781;48.154;11.554;2022-09-09T15:30:54;22.20;72.30
7688;DHT22;30781;48.154;11.554;2022-09-09T15:33:22;22.20;72.50
7688;DHT22;30781;48.154;11.554;2022-09-09T15:35:49;22.20;72.80
7688;DHT22;30781;48.154;11.554;2022-09-09T15:38:17;22.20;72.70
7688;DHT22;30781;48.154;11.554;2022-09-09T15:40:44;22.20;72.50
7688;DHT22;30781;48.154;11.554;2022-09-09T15:43:13;22.20;73.50
7688;DHT22;30781;48.154;11.554;2022-09-09T15:45:40;22.30;72.60
7688;DHT22;30781;48.154;11.554;2022-09-09T15:48:07;22.30;72.20
7688;DHT22;30781;48.154;11.554;2022-09-09T15:50:34;22.30;72.00
7688;DHT22;30781;48.154;11.554;2022-09-09T15:53:01;22.30;72.10
7688;DHT22;30781;48.154;11.554;2022-09-09T15:55:29;22.30;72.40
7688;DHT22;30781;48.154;11.554;2022-09-09T15:57:56;22.40;71.80